UTA261 USHU-USSS
Flight info
| Callsign | UTA261 |
|---|---|
| Flight time | 1h 18m |
| Altitude | 16000 |
| Route | N0240F160 LARUS N167 MAPUN T764 REPSA |
| Aircraft | AN24/M-I/L |
Departure
| Time | 2026-05-04 11:59 |
|---|---|
| Airport | Uray Airport (USHU) |
Arrival
| Time | 2026-05-04 13:18 |
|---|---|
| Airport | Koltsovo Airport (USSS) |
| Time | Latitude | Longitude | Altitude | Speed | Heading |
|---|---|---|---|---|---|
| 2026-05-04 11:31 | 60.11702 | 64.82496 | 200 ft | 0 kts | 193° |
| 2026-05-04 11:55 | 60.11681 | 64.82636 | 199 ft | 11 kts | 28° |
| 2026-05-04 11:55 | 60.11721 | 64.82739 | 198 ft | 10 kts | 108° |
| 2026-05-04 11:56 | 60.11714 | 64.82804 | 198 ft | 0 kts | 102° |
| 2026-05-04 11:56 | 60.11713 | 64.82807 | 198 ft | 4 kts | 103° |
| 2026-05-04 11:57 | 60.11697 | 64.82958 | 199 ft | 12 kts | 112° |
| 2026-05-04 11:57 | 60.11622 | 64.82970 | 200 ft | 10 kts | 192° |
| 2026-05-04 11:57 | 60.11584 | 64.82954 | 200 ft | 0 kts | 192° |
| 2026-05-04 11:58 | 60.11583 | 64.82954 | 200 ft | 3 kts | 192° |
| 2026-05-04 11:58 | 60.11280 | 64.82826 | 201 ft | 80 kts | 191° |
| 2026-05-04 11:59 | 60.10567 | 64.82511 | 208 ft | 123 kts | 191° |
| 2026-05-04 11:59 | 60.09640 | 64.82115 | 392 ft | 145 kts | 191° |
| 2026-05-04 11:59 | 60.08635 | 64.81702 | 774 ft | 151 kts | 191° |
| 2026-05-04 11:59 | 60.07568 | 64.81280 | 1036 ft | 164 kts | 189° |
| 2026-05-04 12:00 | 60.06408 | 64.81412 | 1336 ft | 174 kts | 165° |
| 2026-05-04 12:00 | 60.05282 | 64.82307 | 1749 ft | 172 kts | 163° |
| 2026-05-04 12:00 | 60.04170 | 64.82960 | 2175 ft | 167 kts | 169° |
| 2026-05-04 12:00 | 60.02988 | 64.83105 | 2428 ft | 172 kts | 184° |
| 2026-05-04 12:01 | 60.01798 | 64.83023 | 2762 ft | 173 kts | 182° |
| 2026-05-04 12:01 | 60.00603 | 64.82941 | 3064 ft | 175 kts | 183° |
| 2026-05-04 12:02 | 59.93188 | 64.82596 | 4975 ft | 179 kts | 182° |
| 2026-05-04 12:03 | 59.91946 | 64.82571 | 5248 ft | 182 kts | 183° |
| 2026-05-04 12:03 | 59.90679 | 64.82516 | 5527 ft | 183 kts | 183° |
| 2026-05-04 12:03 | 59.89407 | 64.82484 | 5856 ft | 182 kts | 182° |
| 2026-05-04 12:03 | 59.88125 | 64.82459 | 6103 ft | 185 kts | 183° |
| 2026-05-04 12:04 | 59.86839 | 64.82395 | 6364 ft | 187 kts | 184° |
| 2026-05-04 12:04 | 59.85551 | 64.82305 | 6673 ft | 186 kts | 184° |
| 2026-05-04 12:04 | 59.84264 | 64.82221 | 6939 ft | 187 kts | 184° |
| 2026-05-04 12:04 | 59.82945 | 64.82161 | 7197 ft | 189 kts | 183° |
| 2026-05-04 12:05 | 59.81652 | 64.82130 | 7522 ft | 186 kts | 182° |
| 2026-05-04 12:05 | 59.80365 | 64.82106 | 7775 ft | 187 kts | 183° |
| 2026-05-04 12:05 | 59.79058 | 64.82044 | 8026 ft | 188 kts | 183° |
| 2026-05-04 12:05 | 59.77758 | 64.81994 | 8323 ft | 186 kts | 184° |
| 2026-05-04 12:06 | 59.76482 | 64.81937 | 8590 ft | 185 kts | 184° |
| 2026-05-04 12:06 | 59.75200 | 64.81873 | 8861 ft | 184 kts | 184° |
| 2026-05-04 12:06 | 59.73919 | 64.81815 | 9133 ft | 183 kts | 184° |
| 2026-05-04 12:06 | 59.72654 | 64.81792 | 9391 ft | 183 kts | 183° |
| 2026-05-04 12:07 | 59.71392 | 64.81776 | 9632 ft | 182 kts | 183° |
| 2026-05-04 12:07 | 59.70139 | 64.81760 | 9861 ft | 182 kts | 182° |
| 2026-05-04 12:07 | 59.68858 | 64.81745 | 10091 ft | 183 kts | 183° |
| 2026-05-04 12:07 | 59.67603 | 64.81728 | 10322 ft | 183 kts | 183° |
| 2026-05-04 12:08 | 59.66320 | 64.81712 | 10557 ft | 184 kts | 183° |
| 2026-05-04 12:08 | 59.65058 | 64.81696 | 10782 ft | 184 kts | 183° |
| 2026-05-04 12:08 | 59.63780 | 64.81679 | 11016 ft | 184 kts | 183° |
| 2026-05-04 12:08 | 59.62498 | 64.81664 | 11236 ft | 184 kts | 183° |
| 2026-05-04 12:09 | 59.61234 | 64.81647 | 11461 ft | 183 kts | 183° |
| 2026-05-04 12:09 | 59.59956 | 64.81632 | 11670 ft | 184 kts | 183° |
| 2026-05-04 12:09 | 59.58695 | 64.81615 | 11887 ft | 184 kts | 183° |
| 2026-05-04 12:09 | 59.57411 | 64.81599 | 12093 ft | 184 kts | 183° |
| 2026-05-04 12:10 | 59.56130 | 64.81583 | 12290 ft | 185 kts | 183° |
| 2026-05-04 12:10 | 59.54851 | 64.81566 | 12490 ft | 185 kts | 183° |
| 2026-05-04 12:10 | 59.53569 | 64.81551 | 12679 ft | 186 kts | 183° |
| 2026-05-04 12:10 | 59.52260 | 64.81533 | 12856 ft | 187 kts | 182° |
| 2026-05-04 12:11 | 59.50970 | 64.81518 | 13035 ft | 187 kts | 183° |
| 2026-05-04 12:11 | 59.49671 | 64.81500 | 13211 ft | 188 kts | 182° |
| 2026-05-04 12:11 | 59.48359 | 64.81485 | 13400 ft | 188 kts | 183° |
| 2026-05-04 12:11 | 59.47068 | 64.81467 | 13569 ft | 188 kts | 183° |
| 2026-05-04 12:12 | 59.45756 | 64.81451 | 13734 ft | 188 kts | 183° |
| 2026-05-04 12:12 | 59.44452 | 64.81434 | 13924 ft | 188 kts | 183° |
| 2026-05-04 12:12 | 59.43142 | 64.81419 | 14093 ft | 188 kts | 182° |
| 2026-05-04 12:12 | 59.41840 | 64.81402 | 14263 ft | 188 kts | 183° |
| 2026-05-04 12:13 | 59.40545 | 64.81386 | 14426 ft | 188 kts | 182° |
| 2026-05-04 12:14 | 59.31274 | 64.81271 | 15449 ft | 192 kts | 182° |
| 2026-05-04 12:15 | 59.29951 | 64.81252 | 15577 ft | 192 kts | 182° |
| 2026-05-04 12:15 | 59.28612 | 64.81232 | 15715 ft | 193 kts | 183° |
| 2026-05-04 12:15 | 59.27264 | 64.81172 | 15798 ft | 196 kts | 183° |
| 2026-05-04 12:15 | 59.25905 | 64.81105 | 15837 ft | 201 kts | 184° |
| 2026-05-04 12:16 | 59.24475 | 64.81036 | 15840 ft | 207 kts | 183° |
| 2026-05-04 12:16 | 59.23023 | 64.80969 | 15864 ft | 210 kts | 183° |
| 2026-05-04 12:16 | 59.21578 | 64.80901 | 15862 ft | 213 kts | 184° |
| 2026-05-04 12:16 | 59.20081 | 64.80830 | 15845 ft | 217 kts | 184° |
| 2026-05-04 12:17 | 59.18570 | 64.80762 | 15842 ft | 219 kts | 183° |
| 2026-05-04 12:17 | 59.17051 | 64.80691 | 15846 ft | 221 kts | 183° |
| 2026-05-04 12:17 | 59.15508 | 64.80617 | 15852 ft | 223 kts | 183° |
| 2026-05-04 12:17 | 59.13949 | 64.80547 | 15852 ft | 224 kts | 183° |
| 2026-05-04 12:18 | 59.12409 | 64.80480 | 15863 ft | 224 kts | 182° |
| 2026-05-04 12:18 | 59.10853 | 64.80401 | 15839 ft | 225 kts | 183° |
| 2026-05-04 12:18 | 59.09285 | 64.80346 | 15856 ft | 225 kts | 183° |
| 2026-05-04 12:18 | 59.07731 | 64.80264 | 15851 ft | 226 kts | 183° |
| 2026-05-04 12:19 | 59.06141 | 64.80186 | 15827 ft | 227 kts | 183° |
| 2026-05-04 12:19 | 59.04587 | 64.80114 | 15844 ft | 225 kts | 182° |
| 2026-05-04 12:19 | 59.03012 | 64.80043 | 15846 ft | 224 kts | 183° |
| 2026-05-04 12:19 | 59.01478 | 64.79973 | 15845 ft | 224 kts | 183° |
| 2026-05-04 12:20 | 58.99931 | 64.79900 | 15861 ft | 222 kts | 183° |
| 2026-05-04 12:20 | 58.98381 | 64.79830 | 15851 ft | 223 kts | 183° |
| 2026-05-04 12:20 | 58.96829 | 64.79758 | 15859 ft | 223 kts | 183° |
| 2026-05-04 12:20 | 58.95298 | 64.79688 | 15852 ft | 223 kts | 184° |
| 2026-05-04 12:21 | 58.93749 | 64.79615 | 15847 ft | 223 kts | 183° |
| 2026-05-04 12:21 | 58.92199 | 64.79545 | 15867 ft | 222 kts | 183° |
| 2026-05-04 12:21 | 58.90643 | 64.79472 | 15848 ft | 223 kts | 183° |
| 2026-05-04 12:21 | 58.89107 | 64.79402 | 15860 ft | 223 kts | 183° |
| 2026-05-04 12:22 | 58.87540 | 64.79329 | 15856 ft | 224 kts | 183° |
| 2026-05-04 12:22 | 58.85996 | 64.79259 | 15846 ft | 224 kts | 183° |
| 2026-05-04 12:22 | 58.84455 | 64.79187 | 15858 ft | 222 kts | 183° |
| 2026-05-04 12:22 | 58.82905 | 64.79118 | 15856 ft | 222 kts | 183° |
| 2026-05-04 12:23 | 58.81361 | 64.79047 | 15866 ft | 223 kts | 183° |
| 2026-05-04 12:23 | 58.79823 | 64.78976 | 15850 ft | 224 kts | 183° |
| 2026-05-04 12:23 | 58.78263 | 64.78905 | 15862 ft | 224 kts | 183° |
| 2026-05-04 12:23 | 58.76719 | 64.78833 | 15850 ft | 225 kts | 183° |
| 2026-05-04 12:24 | 58.75160 | 64.78761 | 15858 ft | 225 kts | 183° |
| 2026-05-04 12:24 | 58.73606 | 64.78690 | 15865 ft | 225 kts | 183° |
| 2026-05-04 12:24 | 58.72027 | 64.78618 | 15846 ft | 226 kts | 183° |
| 2026-05-04 12:24 | 58.70474 | 64.78545 | 15860 ft | 226 kts | 183° |
| 2026-05-04 12:25 | 58.68903 | 64.78474 | 15842 ft | 226 kts | 183° |
| 2026-05-04 12:25 | 58.67339 | 64.78402 | 15859 ft | 225 kts | 183° |
| 2026-05-04 12:25 | 58.65756 | 64.78330 | 15850 ft | 226 kts | 183° |
| 2026-05-04 12:25 | 58.64203 | 64.78258 | 15845 ft | 226 kts | 183° |
| 2026-05-04 12:26 | 58.62628 | 64.78188 | 15869 ft | 225 kts | 183° |
| 2026-05-04 12:26 | 58.61109 | 64.77814 | 15867 ft | 223 kts | 198° |
| 2026-05-04 12:26 | 58.59730 | 64.76527 | 15879 ft | 221 kts | 216° |
| 2026-05-04 12:26 | 58.58633 | 64.74455 | 15859 ft | 222 kts | 231° |
| 2026-05-04 12:27 | 58.57693 | 64.72129 | 15813 ft | 224 kts | 232° |
| 2026-05-04 12:27 | 58.56749 | 64.69791 | 15819 ft | 222 kts | 232° |
| 2026-05-04 12:27 | 58.55789 | 64.67481 | 15913 ft | 218 kts | 231° |
| 2026-05-04 12:27 | 58.54833 | 64.65203 | 15847 ft | 222 kts | 231° |
| 2026-05-04 12:28 | 58.53881 | 64.62930 | 15800 ft | 221 kts | 231° |
| 2026-05-04 12:28 | 58.52932 | 64.60671 | 15863 ft | 214 kts | 232° |
| 2026-05-04 12:28 | 58.52007 | 64.58474 | 15864 ft | 214 kts | 232° |
| 2026-05-04 12:28 | 58.51069 | 64.56248 | 15854 ft | 215 kts | 231° |
| 2026-05-04 12:29 | 58.50124 | 64.54005 | 15832 ft | 215 kts | 232° |
| 2026-05-04 12:29 | 58.49208 | 64.51821 | 15838 ft | 212 kts | 231° |
| 2026-05-04 12:29 | 58.48291 | 64.49653 | 15835 ft | 208 kts | 232° |
| 2026-05-04 12:29 | 58.47390 | 64.47517 | 15814 ft | 206 kts | 231° |
| 2026-05-04 12:30 | 58.46491 | 64.45404 | 15844 ft | 205 kts | 232° |
| 2026-05-04 12:30 | 58.45587 | 64.43256 | 15827 ft | 207 kts | 231° |
| 2026-05-04 12:30 | 58.44683 | 64.41133 | 15851 ft | 206 kts | 232° |
| 2026-05-04 12:30 | 58.43780 | 64.39003 | 15825 ft | 206 kts | 232° |
| 2026-05-04 12:31 | 58.42886 | 64.36894 | 15842 ft | 206 kts | 232° |
| 2026-05-04 12:31 | 58.41984 | 64.34768 | 15839 ft | 206 kts | 231° |
| 2026-05-04 12:31 | 58.41085 | 64.32653 | 15841 ft | 205 kts | 231° |
| 2026-05-04 12:31 | 58.40198 | 64.30567 | 15835 ft | 206 kts | 231° |
| 2026-05-04 12:32 | 58.39288 | 64.28429 | 15842 ft | 206 kts | 232° |
| 2026-05-04 12:32 | 58.37505 | 64.24112 | 15824 ft | 210 kts | 232° |
| 2026-05-04 12:32 | 58.36608 | 64.21938 | 15855 ft | 210 kts | 232° |
| 2026-05-04 12:33 | 58.35706 | 64.19750 | 15842 ft | 212 kts | 232° |
| 2026-05-04 12:33 | 58.34798 | 64.17557 | 15847 ft | 212 kts | 232° |
| 2026-05-04 12:33 | 58.33890 | 64.15356 | 15832 ft | 213 kts | 232° |
| 2026-05-04 12:33 | 58.32963 | 64.13110 | 15843 ft | 213 kts | 232° |
| 2026-05-04 12:34 | 58.32066 | 64.10938 | 15841 ft | 211 kts | 231° |
| 2026-05-04 12:34 | 58.31155 | 64.08749 | 15817 ft | 210 kts | 232° |
| 2026-05-04 12:34 | 58.30256 | 64.06583 | 15833 ft | 210 kts | 232° |
| 2026-05-04 12:34 | 58.29356 | 64.04413 | 15847 ft | 209 kts | 232° |
| 2026-05-04 12:35 | 58.28455 | 64.02246 | 15832 ft | 210 kts | 233° |
| 2026-05-04 12:35 | 58.27542 | 64.00063 | 15862 ft | 209 kts | 233° |
| 2026-05-04 12:35 | 58.26646 | 63.97905 | 15851 ft | 210 kts | 232° |
| 2026-05-04 12:35 | 58.25745 | 63.95739 | 15863 ft | 209 kts | 232° |
| 2026-05-04 12:36 | 58.24844 | 63.93583 | 15867 ft | 209 kts | 232° |
| 2026-05-04 12:36 | 58.23943 | 63.91423 | 15844 ft | 209 kts | 233° |
| 2026-05-04 12:36 | 58.23046 | 63.89266 | 15814 ft | 209 kts | 232° |
| 2026-05-04 12:36 | 58.22154 | 63.87137 | 15877 ft | 206 kts | 232° |
| 2026-05-04 12:37 | 58.21265 | 63.85016 | 15876 ft | 206 kts | 232° |
| 2026-05-04 12:37 | 58.20366 | 63.82872 | 15823 ft | 208 kts | 232° |
| 2026-05-04 12:37 | 58.19474 | 63.80750 | 15842 ft | 206 kts | 232° |
| 2026-05-04 12:37 | 58.18592 | 63.78646 | 15902 ft | 203 kts | 232° |
| 2026-05-04 12:38 | 58.17706 | 63.76541 | 15835 ft | 207 kts | 232° |
| 2026-05-04 12:38 | 58.16796 | 63.74378 | 15816 ft | 207 kts | 232° |
| 2026-05-04 12:38 | 58.15914 | 63.72286 | 15881 ft | 202 kts | 232° |
| 2026-05-04 12:38 | 58.15051 | 63.70238 | 15867 ft | 201 kts | 232° |
| 2026-05-04 12:39 | 58.14176 | 63.68166 | 15789 ft | 201 kts | 232° |
| 2026-05-04 12:39 | 58.13306 | 63.66106 | 15857 ft | 198 kts | 232° |
| 2026-05-04 12:39 | 58.12456 | 63.64091 | 15912 ft | 197 kts | 232° |
| 2026-05-04 12:39 | 58.11585 | 63.62067 | 15844 ft | 203 kts | 231° |
| 2026-05-04 12:40 | 58.10680 | 63.60009 | 15810 ft | 205 kts | 232° |
| 2026-05-04 12:40 | 58.09780 | 63.57959 | 15891 ft | 202 kts | 231° |
| 2026-05-04 12:40 | 58.08879 | 63.55915 | 15894 ft | 205 kts | 231° |
| 2026-05-04 12:40 | 58.07944 | 63.53787 | 15829 ft | 211 kts | 231° |
| 2026-05-04 12:41 | 58.07005 | 63.51653 | 15825 ft | 213 kts | 232° |
| 2026-05-04 12:41 | 58.06063 | 63.49530 | 15874 ft | 212 kts | 231° |
| 2026-05-04 12:41 | 58.05133 | 63.47407 | 15882 ft | 213 kts | 231° |
| 2026-05-04 12:41 | 58.04165 | 63.45217 | 15800 ft | 218 kts | 231° |
| 2026-05-04 12:42 | 58.03201 | 63.43033 | 15863 ft | 215 kts | 231° |
| 2026-05-04 12:42 | 58.02251 | 63.40889 | 15902 ft | 215 kts | 231° |
| 2026-05-04 12:42 | 58.01285 | 63.38705 | 15814 ft | 220 kts | 231° |
| 2026-05-04 12:42 | 58.00308 | 63.36499 | 15840 ft | 219 kts | 231° |
| 2026-05-04 12:43 | 57.99335 | 63.34309 | 15899 ft | 217 kts | 231° |
| 2026-05-04 12:43 | 57.98365 | 63.32124 | 15833 ft | 221 kts | 230° |
| 2026-05-04 12:43 | 57.97382 | 63.29910 | 15821 ft | 221 kts | 230° |
| 2026-05-04 12:43 | 57.96404 | 63.27713 | 15894 ft | 218 kts | 230° |
| 2026-05-04 12:44 | 57.95428 | 63.25516 | 15850 ft | 221 kts | 230° |
| 2026-05-04 12:44 | 57.94434 | 63.23289 | 15788 ft | 223 kts | 230° |
| 2026-05-04 12:44 | 57.93454 | 63.21089 | 15872 ft | 220 kts | 230° |
| 2026-05-04 12:44 | 57.92468 | 63.18880 | 15855 ft | 221 kts | 230° |
| 2026-05-04 12:45 | 57.91467 | 63.16640 | 15786 ft | 224 kts | 230° |
| 2026-05-04 12:45 | 57.90474 | 63.14421 | 15856 ft | 221 kts | 231° |
| 2026-05-04 12:45 | 57.89500 | 63.12243 | 15877 ft | 221 kts | 231° |
| 2026-05-04 12:45 | 57.88494 | 63.10000 | 15799 ft | 225 kts | 231° |
| 2026-05-04 12:46 | 57.87498 | 63.07776 | 15820 ft | 223 kts | 231° |
| 2026-05-04 12:46 | 57.86496 | 63.05546 | 15901 ft | 220 kts | 230° |
| 2026-05-04 12:46 | 57.85515 | 63.03364 | 15822 ft | 223 kts | 230° |
| 2026-05-04 12:46 | 57.84508 | 63.01128 | 15794 ft | 224 kts | 231° |
| 2026-05-04 12:47 | 57.83521 | 62.98931 | 15882 ft | 219 kts | 230° |
| 2026-05-04 12:47 | 57.82544 | 62.96755 | 15849 ft | 221 kts | 231° |
| 2026-05-04 12:47 | 57.81548 | 62.94549 | 15796 ft | 223 kts | 231° |
| 2026-05-04 12:47 | 57.80559 | 62.92363 | 15864 ft | 218 kts | 231° |
| 2026-05-04 12:48 | 57.79577 | 62.90185 | 15901 ft | 217 kts | 230° |
| 2026-05-04 12:48 | 57.78597 | 62.88016 | 15806 ft | 222 kts | 231° |
| 2026-05-04 12:48 | 57.77605 | 62.85834 | 15825 ft | 220 kts | 231° |
| 2026-05-04 12:48 | 57.76630 | 62.83676 | 15904 ft | 216 kts | 230° |
| 2026-05-04 12:49 | 57.75641 | 62.81503 | 15842 ft | 219 kts | 231° |
| 2026-05-04 12:49 | 57.74664 | 62.79341 | 15808 ft | 220 kts | 231° |
| 2026-05-04 12:49 | 57.73688 | 62.77202 | 15891 ft | 215 kts | 231° |
| 2026-05-04 12:49 | 57.72715 | 62.75072 | 15867 ft | 216 kts | 231° |
| 2026-05-04 12:50 | 57.71733 | 62.72905 | 15790 ft | 219 kts | 231° |
| 2026-05-04 12:50 | 57.70753 | 62.70759 | 15859 ft | 215 kts | 231° |
| 2026-05-04 12:50 | 57.69801 | 62.68665 | 15884 ft | 213 kts | 231° |
| 2026-05-04 12:50 | 57.68835 | 62.66549 | 15822 ft | 216 kts | 231° |
| 2026-05-04 12:51 | 57.67856 | 62.64414 | 15830 ft | 214 kts | 231° |
| 2026-05-04 12:51 | 57.66902 | 62.62327 | 15896 ft | 211 kts | 231° |
| 2026-05-04 12:51 | 57.65951 | 62.60253 | 15840 ft | 214 kts | 231° |
| 2026-05-04 12:51 | 57.64976 | 62.58123 | 15806 ft | 215 kts | 231° |
| 2026-05-04 12:52 | 57.64005 | 62.56044 | 15886 ft | 211 kts | 231° |
| 2026-05-04 12:52 | 57.63032 | 62.53999 | 15869 ft | 212 kts | 230° |
| 2026-05-04 12:52 | 57.62053 | 62.51942 | 15816 ft | 215 kts | 231° |
| 2026-05-04 12:52 | 57.61062 | 62.49865 | 15847 ft | 212 kts | 231° |
| 2026-05-04 12:53 | 57.60104 | 62.47854 | 15930 ft | 209 kts | 231° |
| 2026-05-04 12:53 | 57.59134 | 62.45821 | 15835 ft | 214 kts | 231° |
| 2026-05-04 12:53 | 57.58134 | 62.43730 | 15810 ft | 214 kts | 231° |
| 2026-05-04 12:53 | 57.57162 | 62.41691 | 15884 ft | 210 kts | 231° |
| 2026-05-04 12:54 | 57.56193 | 62.39670 | 15861 ft | 211 kts | 231° |
| 2026-05-04 12:54 | 57.55205 | 62.37609 | 15789 ft | 214 kts | 231° |
| 2026-05-04 12:54 | 57.54225 | 62.35561 | 15880 ft | 209 kts | 231° |
| 2026-05-04 12:54 | 57.53270 | 62.33572 | 15896 ft | 208 kts | 230° |
| 2026-05-04 12:55 | 57.52287 | 62.31524 | 15831 ft | 213 kts | 230° |
| 2026-05-04 12:55 | 57.51301 | 62.29475 | 15826 ft | 215 kts | 231° |
| 2026-05-04 12:55 | 57.50314 | 62.27429 | 15857 ft | 215 kts | 231° |
| 2026-05-04 12:55 | 57.49317 | 62.25350 | 15874 ft | 216 kts | 230° |
| 2026-05-04 12:56 | 57.48313 | 62.23266 | 15855 ft | 219 kts | 230° |
| 2026-05-04 12:56 | 57.47299 | 62.21163 | 15846 ft | 220 kts | 230° |
| 2026-05-04 12:56 | 57.46271 | 62.19032 | 15855 ft | 221 kts | 230° |
| 2026-05-04 12:56 | 57.45245 | 62.16906 | 15849 ft | 222 kts | 230° |
| 2026-05-04 12:57 | 57.44227 | 62.14803 | 15858 ft | 222 kts | 230° |
| 2026-05-04 12:57 | 57.43187 | 62.12652 | 15850 ft | 222 kts | 231° |
| 2026-05-04 12:57 | 57.42165 | 62.10544 | 15855 ft | 222 kts | 231° |
| 2026-05-04 12:57 | 57.41129 | 62.08405 | 15845 ft | 224 kts | 231° |
| 2026-05-04 12:58 | 57.40095 | 62.06274 | 15857 ft | 223 kts | 231° |
| 2026-05-04 12:58 | 57.39064 | 62.04151 | 15845 ft | 224 kts | 231° |
| 2026-05-04 12:58 | 57.38012 | 62.01988 | 15861 ft | 223 kts | 231° |
| 2026-05-04 12:58 | 57.36979 | 61.99864 | 15861 ft | 223 kts | 231° |
| 2026-05-04 12:59 | 57.35946 | 61.97744 | 15853 ft | 224 kts | 231° |
| 2026-05-04 12:59 | 57.34904 | 61.95604 | 15873 ft | 223 kts | 231° |
| 2026-05-04 12:59 | 57.33873 | 61.93490 | 15856 ft | 224 kts | 231° |
| 2026-05-04 12:59 | 57.32830 | 61.91356 | 15863 ft | 224 kts | 231° |
| 2026-05-04 13:00 | 57.31782 | 61.89211 | 15860 ft | 224 kts | 231° |
| 2026-05-04 13:00 | 57.30741 | 61.87082 | 15847 ft | 225 kts | 231° |
| 2026-05-04 13:00 | 57.29698 | 61.84953 | 15877 ft | 224 kts | 231° |
| 2026-05-04 13:00 | 57.28648 | 61.82847 | 15872 ft | 224 kts | 230° |
| 2026-05-04 13:01 | 57.27575 | 61.80728 | 15864 ft | 224 kts | 230° |
| 2026-05-04 13:01 | 57.26515 | 61.78639 | 15880 ft | 224 kts | 230° |
| 2026-05-04 13:01 | 57.25450 | 61.76534 | 15874 ft | 224 kts | 230° |
| 2026-05-04 13:01 | 57.24388 | 61.74445 | 15853 ft | 225 kts | 230° |
| 2026-05-04 13:02 | 57.23319 | 61.72345 | 15863 ft | 225 kts | 230° |
| 2026-05-04 13:02 | 57.22247 | 61.70264 | 15883 ft | 218 kts | 229° |
| 2026-05-04 13:02 | 57.21196 | 61.68294 | 15531 ft | 216 kts | 229° |
| 2026-05-04 13:02 | 57.20156 | 61.66319 | 15050 ft | 219 kts | 230° |
| 2026-05-04 13:03 | 57.19102 | 61.64291 | 14725 ft | 215 kts | 229° |
| 2026-05-04 13:03 | 57.18059 | 61.62358 | 14342 ft | 214 kts | 229° |
| 2026-05-04 13:03 | 57.17008 | 61.60400 | 13879 ft | 217 kts | 229° |
| 2026-05-04 13:03 | 57.15931 | 61.58471 | 13498 ft | 216 kts | 227° |
| 2026-05-04 13:04 | 57.14840 | 61.56599 | 13150 ft | 214 kts | 226° |
| 2026-05-04 13:04 | 57.13782 | 61.54716 | 12766 ft | 213 kts | 227° |
| 2026-05-04 13:04 | 57.12734 | 61.52856 | 12398 ft | 212 kts | 227° |
| 2026-05-04 13:04 | 57.11686 | 61.50965 | 12050 ft | 210 kts | 229° |
| 2026-05-04 13:05 | 57.10680 | 61.49073 | 11669 ft | 209 kts | 229° |
| 2026-05-04 13:05 | 57.09656 | 61.47157 | 11288 ft | 208 kts | 229° |
| 2026-05-04 13:05 | 57.08664 | 61.45298 | 10956 ft | 205 kts | 230° |
| 2026-05-04 13:05 | 57.07676 | 61.43413 | 10596 ft | 204 kts | 229° |
| 2026-05-04 13:06 | 57.06698 | 61.41560 | 10216 ft | 204 kts | 230° |
| 2026-05-04 13:06 | 57.05716 | 61.39674 | 9851 ft | 203 kts | 230° |
| 2026-05-04 13:06 | 57.04742 | 61.37822 | 9495 ft | 202 kts | 229° |
| 2026-05-04 13:06 | 57.03764 | 61.36020 | 9121 ft | 203 kts | 229° |
| 2026-05-04 13:07 | 57.02805 | 61.34157 | 8775 ft | 200 kts | 230° |
| 2026-05-04 13:07 | 57.01846 | 61.32270 | 8471 ft | 202 kts | 230° |
| 2026-05-04 13:07 | 57.00894 | 61.30424 | 8389 ft | 196 kts | 229° |
| 2026-05-04 13:07 | 56.99952 | 61.28696 | 8353 ft | 189 kts | 229° |
| 2026-05-04 13:08 | 56.99031 | 61.26985 | 8196 ft | 189 kts | 229° |
| 2026-05-04 13:08 | 56.98129 | 61.25210 | 8026 ft | 191 kts | 231° |
| 2026-05-04 13:08 | 56.97245 | 61.23415 | 8023 ft | 188 kts | 232° |
| 2026-05-04 13:08 | 56.96378 | 61.21673 | 8051 ft | 184 kts | 231° |
| 2026-05-04 13:09 | 56.95513 | 61.19935 | 7942 ft | 188 kts | 231° |
| 2026-05-04 13:09 | 56.94621 | 61.18155 | 7824 ft | 190 kts | 231° |
| 2026-05-04 13:09 | 56.93731 | 61.16473 | 7601 ft | 187 kts | 224° |
| 2026-05-04 13:09 | 56.92553 | 61.15285 | 7123 ft | 200 kts | 202° |
| 2026-05-04 13:10 | 56.91199 | 61.14591 | 6672 ft | 206 kts | 199° |
| 2026-05-04 13:10 | 56.89816 | 61.13933 | 6212 ft | 210 kts | 198° |
| 2026-05-04 13:10 | 56.88390 | 61.13298 | 5773 ft | 212 kts | 197° |
| 2026-05-04 13:10 | 56.86957 | 61.12697 | 5349 ft | 213 kts | 196° |
| 2026-05-04 13:11 | 56.85513 | 61.12104 | 4978 ft | 210 kts | 196° |
| 2026-05-04 13:11 | 56.84088 | 61.11520 | 4547 ft | 212 kts | 197° |
| 2026-05-04 13:11 | 56.82659 | 61.10869 | 4057 ft | 215 kts | 197° |
| 2026-05-04 13:11 | 56.81226 | 61.10226 | 3710 ft | 210 kts | 197° |
| 2026-05-04 13:12 | 56.79834 | 61.09593 | 3444 ft | 203 kts | 197° |
| 2026-05-04 13:12 | 56.78513 | 61.09036 | 3360 ft | 188 kts | 197° |
| 2026-05-04 13:12 | 56.77275 | 61.08483 | 3267 ft | 176 kts | 198° |
| 2026-05-04 13:12 | 56.76131 | 61.07965 | 3189 ft | 163 kts | 199° |
| 2026-05-04 13:13 | 56.75094 | 61.07464 | 2953 ft | 147 kts | 199° |
| 2026-05-04 13:13 | 56.74126 | 61.06990 | 2618 ft | 146 kts | 200° |
| 2026-05-04 13:13 | 56.73153 | 61.06556 | 2521 ft | 142 kts | 199° |
| 2026-05-04 13:13 | 56.72329 | 61.05721 | 2477 ft | 137 kts | 231° |
| 2026-05-04 13:14 | 56.71972 | 61.04182 | 2456 ft | 131 kts | 268° |
| 2026-05-04 13:14 | 56.72016 | 61.02585 | 2536 ft | 123 kts | 278° |
| 2026-05-04 13:14 | 56.72176 | 61.01027 | 2460 ft | 125 kts | 282° |
| 2026-05-04 13:14 | 56.72334 | 60.99565 | 2574 ft | 112 kts | 284° |
| 2026-05-04 13:15 | 56.72525 | 60.98144 | 2423 ft | 121 kts | 290° |
| 2026-05-04 13:15 | 56.72812 | 60.96735 | 2298 ft | 118 kts | 292° |
| 2026-05-04 13:15 | 56.73111 | 60.95332 | 2102 ft | 118 kts | 293° |
| 2026-05-04 13:15 | 56.73394 | 60.93967 | 1957 ft | 115 kts | 288° |
| 2026-05-04 13:16 | 56.73573 | 60.92528 | 1835 ft | 117 kts | 275° |
| 2026-05-04 13:16 | 56.73651 | 60.91050 | 1691 ft | 117 kts | 278° |
| 2026-05-04 13:16 | 56.73754 | 60.89578 | 1581 ft | 116 kts | 279° |
| 2026-05-04 13:16 | 56.73834 | 60.88119 | 1433 ft | 118 kts | 273° |
| 2026-05-04 13:17 | 56.73882 | 60.86612 | 1277 ft | 120 kts | 273° |
| 2026-05-04 13:17 | 56.73921 | 60.85101 | 1144 ft | 120 kts | 277° |
| 2026-05-04 13:17 | 56.74007 | 60.83583 | 977 ft | 121 kts | 277° |
| 2026-05-04 13:17 | 56.74064 | 60.82089 | 789 ft | 113 kts | 275° |
| 2026-05-04 13:18 | 56.74117 | 60.80853 | 778 ft | 77 kts | 272° |
| 2026-05-04 13:18 | 56.74144 | 60.80127 | 778 ft | 42 kts | 276° |
| 2026-05-04 13:18 | 56.74162 | 60.79696 | 778 ft | 27 kts | 271° |
| 2026-05-04 13:18 | 56.74173 | 60.79406 | 778 ft | 19 kts | 275° |
| 2026-05-04 13:19 | 56.74195 | 60.79104 | 778 ft | 23 kts | 305° |
| 2026-05-04 13:19 | 56.74273 | 60.79105 | 778 ft | 16 kts | 11° |
| 2026-05-04 13:19 | 56.74403 | 60.79149 | 778 ft | 12 kts | 10° |
| 2026-05-04 13:19 | 56.74530 | 60.79185 | 778 ft | 19 kts | 2° |
| 2026-05-04 13:20 | 56.74649 | 60.79205 | 778 ft | 14 kts | 40° |
| 2026-05-04 13:20 | 56.74662 | 60.79364 | 778 ft | 11 kts | 92° |
| 2026-05-04 13:20 | 56.74661 | 60.79546 | 778 ft | 18 kts | 91° |
| 2026-05-04 13:20 | 56.74662 | 60.79764 | 778 ft | 15 kts | 90° |
| 2026-05-04 13:21 | 56.74661 | 60.80033 | 778 ft | 27 kts | 90° |
| 2026-05-04 13:21 | 56.74661 | 60.80355 | 778 ft | 23 kts | 91° |
| 2026-05-04 13:21 | 56.74667 | 60.80623 | 778 ft | 18 kts | 56° |
| 2026-05-04 13:21 | 56.74741 | 60.80555 | 778 ft | 12 kts | 303° |
| 2026-05-04 13:22 | 56.74800 | 60.80538 | 778 ft | 0 kts | 359° |